createdAt,value
2022-08-31T00:01:31.757Z,23.10
2022-08-31T00:04:05.423Z,23.20
2022-08-31T00:06:39.779Z,23.10
2022-08-31T00:09:13.784Z,23.20
2022-08-31T00:11:49.287Z,23.20
2022-08-31T00:14:22.841Z,23.40
2022-08-31T00:16:56.430Z,23.40
2022-08-31T00:19:29.884Z,23.50
2022-08-31T00:22:03.342Z,23.40
2022-08-31T00:24:36.887Z,23.60
2022-08-31T00:27:12.380Z,23.80
2022-08-31T00:29:46.049Z,23.80
2022-08-31T00:32:21.408Z,23.80
2022-08-31T00:35:14.184Z,23.90
2022-08-31T00:37:48.772Z,24.00
2022-08-31T00:40:22.375Z,24.00
2022-08-31T00:42:59.132Z,24.10
2022-08-31T00:45:33.184Z,24.00
2022-08-31T00:48:07.059Z,23.90
2022-08-31T00:50:41.147Z,23.80
2022-08-31T00:53:14.600Z,23.70
2022-08-31T00:55:47.764Z,23.60
2022-08-31T00:58:22.892Z,23.70
2022-08-31T01:00:56.722Z,23.60
2022-08-31T01:03:30.493Z,23.60
2022-08-31T01:06:04.044Z,23.70
2022-08-31T01:08:37.476Z,23.60
2022-08-31T01:11:20.451Z,23.60
2022-08-31T01:13:56.269Z,23.60
2022-08-31T01:16:38.739Z,23.40
2022-08-31T01:19:18.892Z,23.50
2022-08-31T01:21:59.125Z,23.60
2022-08-31T01:24:37.360Z,23.70
2022-08-31T01:27:11.550Z,23.80
2022-08-31T01:29:45.490Z,23.80
2022-08-31T01:32:19.201Z,23.80
2022-08-31T01:34:52.802Z,23.80
2022-08-31T01:37:29.447Z,23.60
2022-08-31T01:40:06.478Z,23.60
2022-08-31T01:42:40.389Z,23.70
2022-08-31T01:45:15.965Z,23.90
2022-08-31T01:47:51.987Z,24.00
2022-08-31T01:50:26.169Z,23.80
2022-08-31T01:53:00.052Z,23.80
2022-08-31T01:55:40.472Z,23.90
2022-08-31T01:58:15.395Z,23.90
2022-08-31T02:01:19.398Z,23.80
2022-08-31T02:04:00.783Z,23.70
2022-08-31T02:06:34.123Z,23.70
2022-08-31T02:09:10.201Z,23.70
2022-08-31T02:12:05.599Z,23.60
2022-08-31T02:14:39.420Z,23.70
2022-08-31T02:17:13.677Z,23.70
2022-08-31T02:19:47.778Z,23.60
2022-08-31T02:22:21.148Z,23.50
2022-08-31T02:24:54.682Z,23.70
2022-08-31T02:27:33.756Z,23.70
2022-08-31T02:30:07.497Z,23.50
2022-08-31T02:32:41.246Z,23.70
2022-08-31T02:35:15.553Z,23.80
2022-08-31T02:37:50.478Z,23.80
2022-08-31T02:40:24.137Z,23.70
2022-08-31T02:43:00.373Z,23.90
2022-08-31T02:45:35.051Z,24.00
2022-08-31T02:48:14.926Z,24.00
2022-08-31T02:50:51.450Z,24.00
2022-08-31T02:53:27.405Z,24.10
2022-08-31T02:56:01.407Z,24.20
2022-08-31T02:58:36.893Z,24.10
2022-08-31T03:01:10.786Z,24.30
2022-08-31T03:03:46.319Z,24.40
2022-08-31T03:06:24.213Z,24.60
2022-08-31T03:08:58.560Z,24.70
2022-08-31T03:11:32.411Z,24.80
2022-08-31T03:14:08.226Z,24.90
2022-08-31T03:16:43.353Z,25.10
2022-08-31T03:19:17.156Z,25.20
2022-08-31T03:21:56.070Z,25.30
2022-08-31T03:24:30.319Z,25.70
2022-08-31T03:27:04.006Z,25.70
2022-08-31T03:29:39.336Z,25.70
2022-08-31T03:32:34.466Z,25.80
2022-08-31T03:35:09.260Z,26.10
2022-08-31T03:37:44.155Z,26.30
2022-08-31T03:40:18.515Z,25.90
2022-08-31T03:42:52.690Z,25.30
2022-08-31T03:45:29.160Z,25.70
2022-08-31T03:48:11.423Z,25.80
2022-08-31T03:50:47.847Z,26.00
2022-08-31T03:53:30.919Z,26.10
2022-08-31T03:56:13.643Z,26.30
2022-08-31T03:58:48.653Z,26.40
2022-08-31T04:01:43.973Z,26.80
2022-08-31T04:04:36.049Z,26.80
2022-08-31T04:07:42.020Z,26.90
2022-08-31T04:10:34.348Z,26.90
2022-08-31T04:13:43.997Z,27.20
2022-08-31T04:16:38.682Z,27.30
2022-08-31T04:19:53.215Z,27.40
2022-08-31T04:22:36.864Z,27.40
2022-08-31T04:25:36.935Z,27.70
2022-08-31T04:28:11.647Z,27.70
2022-08-31T04:30:49.641Z,28.00
2022-08-31T04:33:23.336Z,28.40
2022-08-31T04:35:59.696Z,28.20
2022-08-31T04:38:34.471Z,28.40
2022-08-31T04:41:30.777Z,28.60
2022-08-31T04:44:05.000Z,28.40
2022-08-31T04:46:59.225Z,28.00
2022-08-31T04:49:32.476Z,28.10
2022-08-31T04:52:09.483Z,28.00
2022-08-31T04:54:42.977Z,28.00
2022-08-31T04:57:17.371Z,27.70
2022-08-31T04:59:51.310Z,27.20
2022-08-31T05:02:43.200Z,27.10
2022-08-31T05:05:20.405Z,27.00
2022-08-31T05:07:58.366Z,27.00
2022-08-31T05:10:35.880Z,27.20
2022-08-31T05:13:10.190Z,27.30
2022-08-31T05:15:47.256Z,27.50
2022-08-31T05:18:29.184Z,27.60
2022-08-31T05:21:14.735Z,27.70
2022-08-31T05:23:51.771Z,27.40
2022-08-31T05:26:26.898Z,27.20
2022-08-31T05:29:00.273Z,27.20
2022-08-31T05:31:52.645Z,27.10
2022-08-31T05:34:27.084Z,26.90
2022-08-31T05:37:01.665Z,27.40
2022-08-31T05:39:46.518Z,27.70
2022-08-31T05:42:21.047Z,28.00
2022-08-31T05:44:56.580Z,27.80
2022-08-31T05:47:30.584Z,27.70
2022-08-31T05:50:08.319Z,27.80
2022-08-31T05:52:46.537Z,27.90
2022-08-31T05:55:34.499Z,27.60
2022-08-31T05:58:09.145Z,27.20
2022-08-31T06:00:44.368Z,27.40
2022-08-31T06:03:42.498Z,27.30
2022-08-31T06:06:16.628Z,27.60
2022-08-31T06:09:07.936Z,27.80
2022-08-31T06:11:44.326Z,28.00
2022-08-31T06:14:23.949Z,28.00
2022-08-31T06:17:01.503Z,28.20
2022-08-31T06:19:35.462Z,28.00
2022-08-31T06:22:08.850Z,28.50
2022-08-31T06:24:44.208Z,28.20
2022-08-31T06:27:19.771Z,28.10
2022-08-31T06:30:02.257Z,27.30
2022-08-31T06:32:40.541Z,27.50
2022-08-31T06:35:16.357Z,27.70
2022-08-31T06:38:08.663Z,27.80
2022-08-31T06:41:01.132Z,27.70
2022-08-31T06:43:59.503Z,27.80
2022-08-31T06:46:57.192Z,27.60
2022-08-31T06:49:33.318Z,27.60
2022-08-31T06:52:08.030Z,27.60
2022-08-31T06:54:44.133Z,27.50
2022-08-31T06:57:35.579Z,27.50
2022-08-31T07:00:29.850Z,27.70
2022-08-31T07:03:34.730Z,27.70
2022-08-31T07:06:17.087Z,27.50
2022-08-31T07:08:53.343Z,27.40
2022-08-31T07:11:30.585Z,27.20
2022-08-31T07:14:04.533Z,27.10
2022-08-31T07:16:42.428Z,27.20
2022-08-31T07:19:18.160Z,27.50
2022-08-31T07:21:53.068Z,27.50
2022-08-31T07:24:30.687Z,27.70
2022-08-31T07:27:05.805Z,27.60
2022-08-31T07:29:47.827Z,27.70
2022-08-31T07:32:25.820Z,27.70
2022-08-31T07:35:16.047Z,28.00
2022-08-31T07:38:19.792Z,27.80
2022-08-31T07:41:06.033Z,27.80
2022-08-31T07:43:42.043Z,27.80
2022-08-31T07:46:15.805Z,27.80
2022-08-31T07:48:52.061Z,27.90
2022-08-31T07:51:53.014Z,27.90
2022-08-31T07:54:53.088Z,27.90
2022-08-31T07:57:37.400Z,27.80
2022-08-31T08:00:13.119Z,27.80
2022-08-31T08:02:53.537Z,28.00
2022-08-31T08:08:33.650Z,27.90
2022-08-31T08:11:22.872Z,28.00
2022-08-31T08:14:25.841Z,28.00
2022-08-31T08:20:38.109Z,28.10
2022-08-31T08:23:15.230Z,27.80
2022-08-31T08:26:21.969Z,27.70
2022-08-31T08:29:21.565Z,27.80
2022-08-31T08:31:56.239Z,27.90
2022-08-31T08:34:32.622Z,27.80
2022-08-31T08:37:10.994Z,27.40
2022-08-31T08:39:45.612Z,27.10
2022-08-31T08:42:27.826Z,27.40
2022-08-31T08:45:02.917Z,27.30
2022-08-31T08:47:41.764Z,26.80
2022-08-31T08:50:17.190Z,26.50
2022-08-31T08:52:51.556Z,26.60
2022-08-31T08:55:34.739Z,26.60
2022-08-31T08:58:13.565Z,26.80
2022-08-31T09:00:49.073Z,26.90
2022-08-31T09:03:33.489Z,27.00
2022-08-31T09:06:53.665Z,27.10
2022-08-31T09:09:41.696Z,27.20
2022-08-31T09:12:27.820Z,27.20
2022-08-31T09:15:37.625Z,26.90
2022-08-31T09:18:30.550Z,26.70
2022-08-31T09:21:22.947Z,26.70
2022-08-31T09:24:04.767Z,26.60
2022-08-31T09:27:24.377Z,26.40
2022-08-31T09:30:07.897Z,26.40
2022-08-31T09:32:43.274Z,26.50
2022-08-31T09:35:42.347Z,26.50
2022-08-31T09:38:17.715Z,26.60
2022-08-31T09:41:24.084Z,26.60
2022-08-31T09:43:58.232Z,26.20
2022-08-31T09:46:33.679Z,26.10
2022-08-31T09:49:23.181Z,26.20
2022-08-31T09:51:57.446Z,26.30
2022-08-31T09:54:47.412Z,26.50
2022-08-31T09:57:24.448Z,26.40
2022-08-31T09:59:58.499Z,26.40
2022-08-31T10:02:39.275Z,26.40
2022-08-31T10:05:42.078Z,26.30
2022-08-31T10:08:29.559Z,26.10
2022-08-31T10:11:06.408Z,25.90
2022-08-31T10:13:44.381Z,25.90
2022-08-31T10:16:27.164Z,25.70
2022-08-31T10:19:08.957Z,25.40
2022-08-31T10:21:56.072Z,25.30
2022-08-31T10:24:35.987Z,25.10
2022-08-31T10:27:16.462Z,25.30
2022-08-31T10:29:56.167Z,25.30
2022-08-31T10:32:40.367Z,25.20
2022-08-31T10:35:20.512Z,25.30
2022-08-31T10:38:02.838Z,25.30
2022-08-31T10:40:43.207Z,25.20
2022-08-31T10:43:22.444Z,25.10
2022-08-31T10:45:57.957Z,24.90
2022-08-31T10:48:31.680Z,24.90
2022-08-31T10:51:21.883Z,25.10
2022-08-31T10:54:09.674Z,24.80
2022-08-31T10:57:00.835Z,24.60
2022-08-31T10:59:42.081Z,24.90
2022-08-31T11:02:52.582Z,25.00
2022-08-31T11:05:34.727Z,25.10
2022-08-31T11:08:25.443Z,25.00
2022-08-31T11:11:02.148Z,24.90
2022-08-31T11:14:01.487Z,24.80
2022-08-31T11:17:12.873Z,24.80
2022-08-31T11:20:07.493Z,24.70
2022-08-31T11:23:21.134Z,24.70
2022-08-31T11:26:32.970Z,24.70
2022-08-31T11:29:14.826Z,24.70
2022-08-31T11:31:49.766Z,24.60
2022-08-31T11:34:30.117Z,24.60
2022-08-31T11:37:05.053Z,24.60
2022-08-31T11:39:45.768Z,24.60
2022-08-31T11:42:50.989Z,24.50
2022-08-31T11:45:36.769Z,24.70
2022-08-31T11:48:31.936Z,24.70
2022-08-31T11:51:10.286Z,24.70
2022-08-31T11:53:45.436Z,24.70
2022-08-31T11:56:40.059Z,24.60
2022-08-31T11:59:36.628Z,24.60
2022-08-31T12:02:38.463Z,24.50
2022-08-31T12:05:15.034Z,24.50
2022-08-31T12:08:04.669Z,24.60
2022-08-31T12:10:44.090Z,24.70
2022-08-31T12:13:38.058Z,24.60
2022-08-31T12:16:31.092Z,24.70
2022-08-31T12:20:00.941Z,24.70
2022-08-31T12:23:30.002Z,24.70
2022-08-31T12:26:29.500Z,24.80
2022-08-31T12:29:23.274Z,24.80
2022-08-31T12:32:22.012Z,24.80
2022-08-31T12:35:02.113Z,24.70
2022-08-31T12:37:40.828Z,24.60
2022-08-31T12:40:25.371Z,24.60
2022-08-31T12:43:08.958Z,24.60
2022-08-31T12:46:31.564Z,24.70
2022-08-31T12:49:25.259Z,24.80
2022-08-31T12:52:10.227Z,24.70
2022-08-31T12:55:24.811Z,24.60
2022-08-31T12:58:23.251Z,24.70
2022-08-31T13:01:09.740Z,24.50
2022-08-31T13:03:54.060Z,24.50
2022-08-31T13:06:34.321Z,24.50
2022-08-31T13:09:09.657Z,24.50
2022-08-31T13:11:45.008Z,24.40
2022-08-31T13:14:24.194Z,24.40
2022-08-31T13:16:59.027Z,24.40
2022-08-31T13:22:32.673Z,24.30
2022-08-31T13:25:36.812Z,24.30
2022-08-31T13:28:22.733Z,24.30
2022-08-31T13:31:04.137Z,24.30
2022-08-31T13:33:41.561Z,24.30
2022-08-31T13:36:33.142Z,24.40
2022-08-31T13:39:10.228Z,24.40
2022-08-31T13:41:47.476Z,24.40
2022-08-31T13:44:39.213Z,24.50
2022-08-31T13:47:45.825Z,24.40
2022-08-31T13:50:35.844Z,24.50
2022-08-31T13:53:27.525Z,24.60
2022-08-31T13:56:01.331Z,24.60
2022-08-31T13:58:42.112Z,24.60
2022-08-31T14:01:27.491Z,24.60
2022-08-31T14:04:04.122Z,24.70
2022-08-31T14:06:40.011Z,24.60
2022-08-31T14:09:20.154Z,24.60
2022-08-31T14:11:55.694Z,24.60
2022-08-31T14:14:31.612Z,24.60
2022-08-31T14:17:06.342Z,24.60
2022-08-31T14:19:43.978Z,24.60
2022-08-31T14:22:32.307Z,24.60
2022-08-31T14:25:06.421Z,24.60
2022-08-31T14:27:44.653Z,24.60
2022-08-31T14:30:19.194Z,24.60
2022-08-31T14:32:54.008Z,24.50
2022-08-31T14:35:31.004Z,24.50
2022-08-31T14:38:08.116Z,24.40
2022-08-31T14:40:50.961Z,24.40
2022-08-31T14:43:25.065Z,24.40
2022-08-31T14:45:59.717Z,24.30
2022-08-31T14:48:37.564Z,24.40
2022-08-31T14:51:13.683Z,24.30
2022-08-31T14:53:46.553Z,24.30
2022-08-31T14:56:23.095Z,24.30
2022-08-31T14:58:58.435Z,24.40
2022-08-31T15:01:36.781Z,24.30
2022-08-31T15:04:10.581Z,24.30
2022-08-31T15:06:46.815Z,24.30
2022-08-31T15:09:21.138Z,24.30
2022-08-31T15:11:54.442Z,24.30
2022-08-31T15:14:28.750Z,24.30
2022-08-31T15:17:04.652Z,24.20
2022-08-31T15:19:40.294Z,24.20
2022-08-31T15:22:22.815Z,24.20
2022-08-31T15:25:00.597Z,24.30
2022-08-31T15:27:34.858Z,24.30
2022-08-31T15:30:10.935Z,24.30
2022-08-31T15:32:46.114Z,24.30
2022-08-31T15:35:25.961Z,24.30
2022-08-31T15:38:03.539Z,24.30
2022-08-31T15:40:39.271Z,24.40
2022-08-31T15:43:16.271Z,24.30
2022-08-31T15:45:50.554Z,24.40
2022-08-31T15:48:43.583Z,24.40
2022-08-31T15:51:29.394Z,24.40
2022-08-31T15:54:21.302Z,24.40
2022-08-31T15:56:56.991Z,24.30
2022-08-31T15:59:30.918Z,24.30
2022-08-31T16:02:05.082Z,24.30
2022-08-31T16:04:44.835Z,24.30
2022-08-31T16:07:18.792Z,24.30
2022-08-31T16:09:54.512Z,24.20
2022-08-31T16:12:28.627Z,24.30
2022-08-31T16:15:02.776Z,24.30
2022-08-31T16:17:40.878Z,24.30
2022-08-31T16:20:17.325Z,24.40
2022-08-31T16:22:53.819Z,24.40
2022-08-31T16:25:47.577Z,24.30
2022-08-31T16:28:24.144Z,24.30
2022-08-31T16:30:58.193Z,24.20
2022-08-31T16:33:31.570Z,24.20
2022-08-31T16:36:08.037Z,24.10
2022-08-31T16:38:41.632Z,24.10
2022-08-31T16:41:17.814Z,24.10
2022-08-31T16:44:09.547Z,24.10
2022-08-31T16:46:45.547Z,24.10
2022-08-31T16:49:37.462Z,24.10
2022-08-31T16:52:13.728Z,24.10
2022-08-31T16:54:49.618Z,24.10
2022-08-31T16:57:42.061Z,24.10
2022-08-31T17:00:17.455Z,24.00
2022-08-31T17:02:50.637Z,24.00
2022-08-31T17:05:24.874Z,24.00
2022-08-31T17:07:59.148Z,24.00
2022-08-31T17:10:35.568Z,23.90
2022-08-31T17:13:11.377Z,24.00
2022-08-31T17:15:45.643Z,24.00
2022-08-31T17:18:28.183Z,23.90
2022-08-31T17:21:01.692Z,24.00
2022-08-31T17:23:36.526Z,24.00
2022-08-31T17:26:10.114Z,24.00
2022-08-31T17:28:48.739Z,24.00
2022-08-31T17:31:22.793Z,24.00
2022-08-31T17:33:56.845Z,23.90
2022-08-31T17:36:36.751Z,23.90
2022-08-31T17:39:12.268Z,23.90
2022-08-31T17:41:46.704Z,23.90
2022-08-31T17:44:24.105Z,23.80
2022-08-31T17:47:01.926Z,23.80
2022-08-31T17:49:43.215Z,23.70
2022-08-31T17:52:21.939Z,23.60
2022-08-31T17:55:01.973Z,23.60
2022-08-31T17:57:35.664Z,23.70
2022-08-31T18:00:13.417Z,23.60
2022-08-31T18:02:47.050Z,23.50
2022-08-31T18:08:11.175Z,23.50
2022-08-31T18:10:44.585Z,23.50
2022-08-31T18:13:17.862Z,23.50
2022-08-31T18:15:55.189Z,23.50
2022-08-31T18:18:33.404Z,23.50
2022-08-31T18:24:20.431Z,23.40
2022-08-31T18:27:08.644Z,23.50
2022-08-31T18:29:46.246Z,23.40
2022-08-31T18:32:35.241Z,23.50
2022-08-31T18:35:15.505Z,23.40
2022-08-31T18:37:48.637Z,23.40
2022-08-31T18:40:38.339Z,23.40
2022-08-31T18:43:28.323Z,23.50
2022-08-31T18:46:02.938Z,23.30
2022-08-31T18:48:39.056Z,23.40
2022-08-31T18:51:17.734Z,23.30
2022-08-31T18:53:55.415Z,23.30
2022-08-31T18:56:29.709Z,23.30
2022-08-31T18:59:03.857Z,23.30
2022-08-31T19:01:37.592Z,23.30
2022-08-31T19:04:13.111Z,23.40
2022-08-31T19:06:48.267Z,23.40
2022-08-31T19:09:24.028Z,23.50
2022-08-31T19:12:03.690Z,23.40
2022-08-31T19:14:45.633Z,23.50
2022-08-31T19:17:20.059Z,23.50
2022-08-31T19:19:56.390Z,23.50
2022-08-31T19:22:30.433Z,23.50
2022-08-31T19:25:04.614Z,23.40
2022-08-31T19:27:38.177Z,23.50
2022-08-31T19:30:13.527Z,23.50
2022-08-31T19:32:59.692Z,23.50
2022-08-31T19:35:36.161Z,23.50
2022-08-31T19:38:10.917Z,23.50
2022-08-31T19:40:45.314Z,23.50
2022-08-31T19:46:16.934Z,23.50
2022-08-31T19:48:51.409Z,23.50
2022-08-31T19:51:27.846Z,23.50
2022-08-31T19:54:02.409Z,23.60
2022-08-31T19:56:36.655Z,23.50
2022-08-31T19:59:10.686Z,23.50
2022-08-31T20:01:57.094Z,23.50
2022-08-31T20:04:33.141Z,23.50
2022-08-31T20:07:09.624Z,23.50
2022-08-31T20:09:44.747Z,23.40
2022-08-31T20:15:07.883Z,23.40
2022-08-31T20:17:43.018Z,23.40
2022-08-31T20:20:16.746Z,23.40
2022-08-31T20:22:55.536Z,23.30
2022-08-31T20:25:29.535Z,23.30
2022-08-31T20:28:03.729Z,23.30
2022-08-31T20:30:40.942Z,23.30
2022-08-31T20:33:15.844Z,23.30
2022-08-31T20:35:50.302Z,23.30
2022-08-31T20:38:30.137Z,23.30
2022-08-31T20:41:06.678Z,23.30
2022-08-31T20:43:41.010Z,23.40
2022-08-31T20:46:35.807Z,23.40
2022-08-31T20:49:26.800Z,23.30
2022-08-31T20:52:01.344Z,23.30
2022-08-31T20:54:37.440Z,23.30
2022-08-31T20:57:12.471Z,23.40
2022-08-31T20:59:46.437Z,23.30
2022-08-31T21:02:20.750Z,23.30
2022-08-31T21:04:54.968Z,23.30
2022-08-31T21:07:28.629Z,23.30
2022-08-31T21:10:05.654Z,23.20
2022-08-31T21:12:39.876Z,23.30
2022-08-31T21:15:16.415Z,23.20
2022-08-31T21:17:51.446Z,23.10
2022-08-31T21:20:25.707Z,23.00
2022-08-31T21:23:00.573Z,23.10
2022-08-31T21:25:36.219Z,23.10
2022-08-31T21:28:14.126Z,23.10
2022-08-31T21:30:50.492Z,23.10
2022-08-31T21:36:12.227Z,22.90
2022-08-31T21:38:46.927Z,23.00
2022-08-31T21:41:27.577Z,23.00
2022-08-31T21:44:02.045Z,23.10
2022-08-31T21:46:36.012Z,23.10
2022-08-31T21:49:12.835Z,23.10
2022-08-31T21:51:50.148Z,23.00
2022-08-31T21:54:25.665Z,23.00
2022-08-31T21:57:03.643Z,23.00
2022-08-31T21:59:39.281Z,23.00
2022-08-31T22:02:15.420Z,23.00
2022-08-31T22:04:50.951Z,22.90
2022-08-31T22:07:26.766Z,23.00
2022-08-31T22:10:00.574Z,23.00
2022-08-31T22:12:35.432Z,23.00
2022-08-31T22:15:12.504Z,23.10
2022-08-31T22:18:11.443Z,23.10
2022-08-31T22:20:41.824Z,23.00
2022-08-31T22:23:15.574Z,23.00
2022-08-31T22:25:50.050Z,23.00
2022-08-31T22:28:26.185Z,23.00
2022-08-31T22:30:59.422Z,23.00
2022-08-31T22:33:34.080Z,23.00
2022-08-31T22:36:08.635Z,22.90
2022-08-31T22:38:43.771Z,23.00
2022-08-31T22:41:21.460Z,22.90
2022-08-31T22:43:56.636Z,22.90
2022-08-31T22:46:30.173Z,22.90
2022-08-31T22:49:04.380Z,22.90
2022-08-31T22:51:38.036Z,22.80
2022-08-31T22:54:13.645Z,22.80
2022-08-31T22:56:47.685Z,22.80
2022-08-31T22:59:28.257Z,22.90
2022-08-31T23:02:04.774Z,23.00
2022-08-31T23:04:43.504Z,23.00
2022-08-31T23:07:17.958Z,23.00
2022-08-31T23:09:51.347Z,23.00
2022-08-31T23:12:24.852Z,23.00
2022-08-31T23:15:00.415Z,23.00
2022-08-31T23:17:34.899Z,23.10
2022-08-31T23:20:10.143Z,23.00
2022-08-31T23:22:43.894Z,23.10
2022-08-31T23:25:18.290Z,23.10
2022-08-31T23:27:53.098Z,23.20
2022-08-31T23:30:29.103Z,23.20
2022-08-31T23:33:03.373Z,23.20
2022-08-31T23:35:36.761Z,23.30
2022-08-31T23:38:10.184Z,23.40
2022-08-31T23:40:43.524Z,23.30
2022-08-31T23:43:17.379Z,23.20
2022-08-31T23:45:54.001Z,23.20
2022-08-31T23:48:27.713Z,23.30
2022-08-31T23:51:03.086Z,23.40
2022-08-31T23:53:37.360Z,23.50
2022-08-31T23:56:13.286Z,23.60
2022-08-31T23:58:47.017Z,23.70
